createdAt,value
2018-06-23T00:00:52.926Z,13.90
2018-06-23T00:03:21.098Z,14.00
2018-06-23T00:05:49.276Z,14.00
2018-06-23T00:08:17.466Z,13.90
2018-06-23T00:10:45.661Z,13.80
2018-06-23T00:13:13.858Z,13.80
2018-06-23T00:15:42.188Z,13.80
2018-06-23T00:18:10.350Z,13.70
2018-06-23T00:20:38.525Z,13.70
2018-06-23T00:23:06.721Z,13.60
2018-06-23T00:25:40.280Z,13.60
2018-06-23T00:30:36.416Z,13.50
2018-06-23T00:33:04.585Z,13.50
2018-06-23T00:35:32.772Z,13.50
2018-06-23T00:38:00.955Z,13.50
2018-06-23T00:40:29.121Z,13.70
2018-06-23T00:45:25.203Z,13.50
2018-06-23T00:47:53.376Z,13.50
2018-06-23T00:50:21.590Z,13.60
2018-06-23T00:52:49.771Z,13.60
2018-06-23T00:55:18.035Z,13.60
2018-06-23T00:57:46.287Z,13.60
2018-06-23T01:00:14.523Z,13.60
2018-06-23T01:02:42.747Z,13.60
2018-06-23T01:05:11.001Z,13.50
2018-06-23T01:07:39.239Z,13.50
2018-06-23T01:15:03.501Z,13.60
2018-06-23T01:17:31.753Z,13.60
2018-06-23T01:19:59.979Z,13.60
2018-06-23T01:22:28.196Z,13.60
2018-06-23T01:24:56.437Z,13.60
2018-06-23T01:27:24.668Z,13.60
2018-06-23T01:29:52.889Z,13.60
2018-06-23T01:32:21.117Z,13.60
2018-06-23T01:34:49.352Z,13.70
2018-06-23T01:37:17.573Z,13.70
2018-06-23T01:39:45.811Z,13.60
2018-06-23T01:42:14.648Z,13.60
2018-06-23T01:44:42.891Z,13.50
2018-06-23T01:47:11.112Z,13.40
2018-06-23T01:49:39.331Z,13.40
2018-06-23T01:52:07.571Z,13.30
2018-06-23T01:54:35.801Z,13.40
2018-06-23T01:57:03.976Z,13.40
2018-06-23T01:59:32.168Z,13.30
2018-06-23T02:02:00.379Z,13.30
2018-06-23T02:06:56.473Z,13.40
2018-06-23T02:09:24.745Z,13.40
2018-06-23T02:11:53.038Z,13.40
2018-06-23T02:14:26.502Z,13.30
2018-06-23T02:17:00.239Z,13.30
2018-06-23T02:19:33.897Z,13.30
2018-06-23T02:22:07.630Z,13.40
2018-06-23T02:25:41.915Z,13.40
2018-06-23T02:28:15.457Z,13.40
2018-06-23T02:30:48.942Z,13.40
2018-06-23T02:33:22.616Z,13.40
2018-06-23T02:35:50.803Z,13.30
2018-06-23T02:38:19.001Z,13.30
2018-06-23T02:40:47.193Z,13.30
2018-06-23T02:43:15.359Z,13.40
2018-06-23T02:45:43.514Z,13.40
2018-06-23T02:48:11.755Z,13.40
2018-06-23T02:50:39.950Z,13.40
2018-06-23T02:53:08.129Z,13.40
2018-06-23T02:55:36.299Z,13.30
2018-06-23T02:58:04.487Z,13.30
2018-06-23T03:00:32.665Z,13.30
2018-06-23T03:03:00.995Z,13.20
2018-06-23T03:05:29.165Z,13.00
2018-06-23T03:07:57.361Z,12.90
2018-06-23T03:10:25.734Z,13.10
2018-06-23T03:12:53.910Z,12.80
2018-06-23T03:15:22.110Z,13.40
2018-06-23T03:17:50.286Z,13.00
2018-06-23T03:20:18.488Z,13.00
2018-06-23T03:22:46.674Z,13.00
2018-06-23T03:25:14.847Z,13.00
2018-06-23T03:27:43.031Z,13.00
2018-06-23T03:32:39.154Z,12.90
2018-06-23T03:35:07.339Z,12.80
2018-06-23T03:37:35.514Z,12.80
2018-06-23T03:40:03.889Z,12.70
2018-06-23T03:42:32.079Z,12.70
2018-06-23T03:47:28.253Z,12.60
2018-06-23T03:49:56.421Z,12.60
2018-06-23T03:52:24.610Z,12.50
2018-06-23T03:54:53.224Z,12.50
2018-06-23T03:57:21.334Z,12.60
2018-06-23T03:59:49.507Z,12.60
2018-06-23T04:02:17.675Z,12.40
2018-06-23T04:07:13.786Z,12.30
2018-06-23T04:09:42.102Z,12.40
2018-06-23T04:12:10.303Z,12.40
2018-06-23T04:14:38.473Z,12.60
2018-06-23T04:17:06.675Z,12.40
2018-06-23T04:19:34.850Z,12.90
2018-06-23T04:22:03.028Z,12.90
2018-06-23T04:24:31.204Z,12.90
2018-06-23T04:26:59.401Z,12.90
2018-06-23T04:31:55.565Z,12.80
2018-06-23T04:34:23.742Z,12.80
2018-06-23T04:36:51.914Z,12.90
2018-06-23T04:39:20.094Z,13.00
2018-06-23T04:41:48.288Z,13.00
2018-06-23T04:44:16.472Z,13.10
2018-06-23T04:46:44.668Z,13.10
2018-06-23T04:49:12.827Z,13.20
2018-06-23T04:51:40.999Z,13.20
2018-06-23T04:54:09.167Z,13.10
2018-06-23T04:56:37.397Z,13.20
2018-06-23T04:59:05.610Z,13.30
2018-06-23T05:01:33.838Z,13.30
2018-06-23T05:04:02.087Z,13.30
2018-06-23T05:06:30.306Z,13.40
2018-06-23T05:08:58.545Z,13.50
2018-06-23T05:11:26.760Z,13.70
2018-06-23T05:13:55.026Z,13.80
2018-06-23T05:16:23.254Z,14.20
2018-06-23T05:18:51.502Z,14.20
2018-06-23T05:21:20.301Z,14.40
2018-06-23T05:23:48.522Z,14.50
2018-06-23T05:26:16.735Z,14.70
2018-06-23T05:28:44.979Z,14.90
2018-06-23T05:31:13.223Z,15.10
2018-06-23T05:33:41.446Z,15.20
2018-06-23T05:36:09.749Z,15.40
2018-06-23T05:38:37.974Z,15.50
2018-06-23T05:41:06.292Z,15.60
2018-06-23T05:43:34.520Z,15.60
2018-06-23T05:46:02.756Z,15.60
2018-06-23T05:48:30.982Z,15.80
2018-06-23T05:50:59.218Z,16.00
2018-06-23T05:53:27.460Z,16.30
2018-06-23T05:55:55.641Z,16.30
2018-06-23T05:58:23.808Z,16.40
2018-06-23T06:00:52.003Z,16.40
2018-06-23T06:03:20.197Z,16.40
2018-06-23T06:05:48.384Z,16.50
2018-06-23T06:08:16.545Z,16.40
2018-06-23T06:10:44.720Z,16.30
2018-06-23T06:13:12.901Z,16.50
2018-06-23T06:15:41.074Z,17.00
2018-06-23T06:18:09.249Z,16.90
2018-06-23T06:20:37.414Z,16.90
2018-06-23T06:23:05.591Z,17.10
2018-06-23T06:25:33.787Z,17.30
2018-06-23T06:30:29.907Z,17.60
2018-06-23T06:32:58.072Z,17.90
2018-06-23T06:35:26.264Z,18.10
2018-06-23T06:37:54.522Z,18.20
2018-06-23T06:40:22.726Z,18.40
2018-06-23T06:47:46.814Z,18.50
2018-06-23T06:50:14.986Z,18.50
2018-06-23T06:52:43.171Z,18.70
2018-06-23T06:55:11.326Z,18.80
2018-06-23T06:57:39.570Z,18.90
2018-06-23T07:00:07.804Z,18.80
2018-06-23T07:05:03.998Z,18.70
2018-06-23T07:07:32.643Z,18.70
2018-06-23T07:10:00.881Z,18.70
2018-06-23T07:12:29.108Z,18.50
2018-06-23T07:14:57.363Z,18.10
2018-06-23T07:22:21.519Z,17.60
2018-06-23T07:24:49.763Z,17.60
2018-06-23T07:27:18.043Z,17.50
2018-06-23T07:29:46.592Z,17.40
2018-06-23T07:32:14.824Z,17.40
2018-06-23T07:34:43.110Z,17.50
2018-06-23T07:42:07.211Z,17.70
2018-06-23T07:44:35.488Z,17.90
2018-06-23T07:49:31.650Z,17.70
2018-06-23T07:51:59.879Z,17.80
2018-06-23T07:54:28.095Z,18.00
2018-06-23T07:56:56.353Z,18.00
2018-06-23T07:59:24.609Z,18.10
2018-06-23T08:01:53.206Z,18.10
2018-06-23T08:04:21.503Z,18.10
2018-06-23T08:06:49.746Z,18.20
2018-06-23T08:09:17.962Z,18.40
2018-06-23T08:11:46.220Z,18.60
2018-06-23T08:14:14.447Z,18.80
2018-06-23T08:16:42.689Z,19.00
2018-06-23T08:19:10.922Z,19.40
2018-06-23T08:21:39.163Z,19.30
2018-06-23T08:26:35.458Z,19.20
2018-06-23T08:29:03.618Z,19.40
2018-06-23T08:31:31.846Z,19.40
2018-06-23T08:34:00.080Z,19.60
2018-06-23T08:36:28.341Z,19.80
2018-06-23T08:38:56.564Z,19.80
2018-06-23T08:41:24.795Z,19.80
2018-06-23T08:43:53.045Z,19.90
2018-06-23T08:51:17.207Z,20.20
2018-06-23T08:53:45.444Z,20.10
2018-06-23T08:56:13.625Z,20.10
2018-06-23T08:58:41.816Z,20.40
2018-06-23T09:01:10.011Z,20.50
2018-06-23T09:03:38.173Z,20.50
2018-06-23T09:06:06.391Z,20.60
2018-06-23T09:11:02.609Z,20.60
2018-06-23T09:13:30.847Z,20.50
2018-06-23T09:18:26.918Z,20.80
2018-06-23T09:20:55.103Z,20.90
2018-06-23T09:23:23.302Z,20.80
2018-06-23T09:28:19.444Z,20.90
2018-06-23T09:30:47.617Z,21.00
2018-06-23T09:33:15.811Z,20.90
2018-06-23T09:35:44.003Z,20.90
2018-06-23T09:38:12.209Z,20.80
2018-06-23T09:40:40.389Z,20.80
2018-06-23T09:43:08.577Z,20.60
2018-06-23T09:45:36.749Z,20.70
2018-06-23T09:48:04.919Z,20.50
2018-06-23T09:50:33.105Z,20.50
2018-06-23T09:55:29.230Z,20.70
2018-06-23T09:57:57.411Z,21.00
2018-06-23T10:00:28.989Z,21.10
2018-06-23T10:02:58.409Z,20.90
2018-06-23T10:05:26.686Z,20.70
2018-06-23T10:07:54.872Z,20.70
2018-06-23T10:10:23.061Z,20.80
2018-06-23T10:12:51.352Z,20.80
2018-06-23T10:15:19.529Z,20.70
2018-06-23T10:17:47.685Z,20.60
2018-06-23T10:20:15.872Z,20.60
2018-06-23T10:22:44.061Z,20.70
2018-06-23T10:25:12.220Z,20.90
2018-06-23T10:27:40.415Z,21.10
2018-06-23T10:32:36.587Z,21.50
2018-06-23T10:35:04.908Z,21.30
2018-06-23T10:37:33.094Z,21.30
2018-06-23T10:40:01.413Z,21.30
2018-06-23T10:42:29.443Z,21.20
2018-06-23T10:44:57.617Z,20.90
2018-06-23T10:47:25.876Z,20.70
2018-06-23T10:49:54.078Z,20.70
2018-06-23T10:52:22.258Z,20.70
2018-06-23T10:57:18.443Z,21.10
2018-06-23T10:59:46.624Z,21.20
2018-06-23T11:02:14.961Z,21.20
2018-06-23T11:07:11.123Z,21.20
2018-06-23T11:09:39.450Z,21.30
2018-06-23T11:12:07.647Z,21.20
2018-06-23T11:17:03.824Z,21.10
2018-06-23T11:19:32.278Z,21.20
2018-06-23T11:22:00.491Z,21.20
2018-06-23T11:24:28.733Z,21.20
2018-06-23T11:26:56.948Z,20.90
2018-06-23T11:29:25.320Z,21.50
2018-06-23T11:31:54.347Z,21.20
2018-06-23T11:34:22.531Z,21.10
2018-06-23T11:36:50.701Z,21.10
2018-06-23T11:39:18.980Z,21.00
2018-06-23T11:41:47.148Z,21.10
2018-06-23T11:44:15.312Z,21.10
2018-06-23T11:46:43.520Z,21.10
2018-06-23T11:49:11.684Z,21.20
2018-06-23T11:54:07.819Z,21.20
2018-06-23T11:59:04.064Z,21.10
2018-06-23T12:04:00.716Z,21.20
2018-06-23T12:06:28.935Z,21.30
2018-06-23T12:08:57.156Z,21.50
2018-06-23T12:11:25.515Z,21.60
2018-06-23T12:13:53.763Z,21.80
2018-06-23T12:16:22.002Z,21.70
2018-06-23T12:21:18.245Z,21.70
2018-06-23T12:23:46.479Z,21.80
2018-06-23T12:26:14.706Z,21.80
2018-06-23T12:28:42.939Z,21.80
2018-06-23T12:31:11.185Z,21.70
2018-06-23T12:33:39.430Z,21.30
2018-06-23T12:36:07.659Z,22.00
2018-06-23T12:38:35.914Z,22.10
2018-06-23T12:41:04.142Z,21.90
2018-06-23T12:43:32.365Z,21.90
2018-06-23T12:46:00.604Z,21.90
2018-06-23T12:48:28.867Z,22.00
2018-06-23T12:50:57.210Z,22.00
2018-06-23T12:53:25.470Z,21.90
2018-06-23T12:55:53.725Z,21.60
2018-06-23T12:58:21.949Z,21.60
2018-06-23T13:00:50.195Z,21.60
2018-06-23T13:03:18.454Z,21.80
2018-06-23T13:05:46.783Z,21.90
2018-06-23T13:08:15.015Z,21.90
2018-06-23T13:10:43.234Z,21.90
2018-06-23T13:13:11.479Z,21.90
2018-06-23T13:15:39.713Z,21.90
2018-06-23T13:18:08.805Z,21.90
2018-06-23T13:20:37.055Z,21.90
2018-06-23T13:23:05.367Z,22.00
2018-06-23T13:25:33.626Z,22.00
2018-06-23T13:30:29.837Z,22.20
2018-06-23T13:32:58.090Z,22.10
2018-06-23T13:35:26.322Z,22.10
2018-06-23T13:37:54.562Z,22.20
2018-06-23T13:40:22.994Z,22.20
2018-06-23T13:42:51.220Z,22.30
2018-06-23T13:45:19.454Z,22.20
2018-06-23T13:47:47.679Z,22.20
2018-06-23T13:50:15.913Z,22.20
2018-06-23T13:52:44.160Z,22.10
2018-06-23T13:55:12.391Z,22.20
2018-06-23T13:57:40.606Z,22.30
2018-06-23T14:00:09.914Z,22.10
2018-06-23T14:02:38.375Z,22.10
2018-06-23T14:05:06.635Z,22.20
2018-06-23T14:07:35.341Z,22.20
2018-06-23T14:12:31.565Z,22.00
2018-06-23T14:14:59.753Z,21.90
2018-06-23T14:19:55.942Z,22.00
2018-06-23T14:22:24.175Z,22.00
2018-06-23T14:24:52.394Z,22.00
2018-06-23T14:27:20.634Z,21.90
2018-06-23T14:29:48.865Z,22.00
2018-06-23T14:32:17.460Z,22.10
2018-06-23T14:34:45.512Z,21.80
2018-06-23T14:39:41.746Z,22.00
2018-06-23T14:42:09.969Z,21.60
2018-06-23T14:47:06.270Z,21.60
2018-06-23T14:49:34.507Z,21.80
2018-06-23T14:52:02.757Z,21.80
2018-06-23T14:54:30.991Z,21.80
2018-06-23T14:56:59.227Z,21.80
2018-06-23T14:59:27.492Z,21.80
2018-06-23T15:01:55.699Z,21.80
2018-06-23T15:04:23.936Z,21.90
2018-06-23T15:09:31.564Z,22.00
2018-06-23T15:14:33.314Z,22.10
2018-06-23T15:17:01.534Z,22.00
2018-06-23T15:19:29.784Z,22.00
2018-06-23T15:24:26.029Z,22.00
2018-06-23T15:26:54.249Z,21.90
2018-06-23T15:29:22.632Z,21.90
2018-06-23T15:31:50.719Z,22.00
2018-06-23T15:34:18.951Z,22.10
2018-06-23T15:36:47.178Z,22.40
2018-06-23T15:39:15.413Z,21.90
2018-06-23T15:41:43.684Z,21.90
2018-06-23T15:44:11.897Z,21.80
2018-06-23T15:46:40.159Z,21.80
2018-06-23T15:49:08.395Z,21.70
2018-06-23T15:51:36.626Z,21.70
2018-06-23T15:54:05.134Z,21.70
2018-06-23T15:56:33.327Z,21.70
2018-06-23T15:59:01.559Z,21.70
2018-06-23T16:01:29.727Z,21.70
2018-06-23T16:03:57.892Z,21.60
2018-06-23T16:06:26.089Z,21.70
2018-06-23T16:08:54.260Z,21.70
2018-06-23T16:11:22.454Z,21.60
2018-06-23T16:13:50.629Z,21.60
2018-06-23T16:16:18.800Z,21.60
2018-06-23T16:21:14.991Z,21.80
2018-06-23T16:23:43.152Z,21.80
2018-06-23T16:26:11.344Z,21.70
2018-06-23T16:28:39.541Z,21.80
2018-06-23T16:31:07.685Z,21.80
2018-06-23T16:33:35.871Z,21.70
2018-06-23T16:36:04.093Z,21.70
2018-06-23T16:38:32.263Z,21.40
2018-06-23T16:41:00.455Z,21.40
2018-06-23T16:43:28.620Z,21.50
2018-06-23T16:45:56.794Z,21.40
2018-06-23T16:48:24.978Z,21.50
2018-06-23T16:50:53.172Z,21.50
2018-06-23T16:53:21.343Z,21.40
2018-06-23T16:55:49.582Z,21.40
2018-06-23T16:58:17.832Z,21.30
2018-06-23T17:00:46.072Z,21.40
2018-06-23T17:03:14.282Z,21.30
2018-06-23T17:05:42.536Z,21.40
2018-06-23T17:08:10.752Z,21.40
2018-06-23T17:13:07.260Z,21.30
2018-06-23T17:15:35.559Z,21.30
2018-06-23T17:18:03.799Z,21.20
2018-06-23T17:20:32.062Z,21.20
2018-06-23T17:23:00.257Z,21.10
2018-06-23T17:25:28.489Z,21.10
2018-06-23T17:27:56.823Z,21.10
2018-06-23T17:30:25.042Z,21.10
2018-06-23T17:32:53.294Z,21.00
2018-06-23T17:35:21.503Z,20.90
2018-06-23T17:37:49.713Z,20.90
2018-06-23T17:40:17.949Z,21.00
2018-06-23T17:42:46.159Z,20.50
2018-06-23T17:45:14.397Z,20.90
2018-06-23T17:47:42.683Z,20.80
2018-06-23T17:50:11.645Z,20.90
2018-06-23T17:55:07.808Z,20.80
2018-06-23T17:57:36.095Z,20.80
2018-06-23T18:00:05.248Z,20.90
2018-06-23T18:02:33.455Z,20.90
2018-06-23T18:05:01.835Z,20.90
2018-06-23T18:07:30.068Z,20.90
2018-06-23T18:09:58.286Z,20.90
2018-06-23T18:12:26.582Z,20.80
2018-06-23T18:14:54.813Z,20.70
2018-06-23T18:19:51.098Z,20.70
2018-06-23T18:22:19.451Z,20.60
2018-06-23T18:24:47.668Z,20.60
2018-06-23T18:27:15.884Z,20.60
2018-06-23T18:29:44.139Z,20.60
2018-06-23T18:32:12.375Z,20.60
2018-06-23T18:34:40.587Z,20.60
2018-06-23T18:37:08.818Z,20.50
2018-06-23T18:39:37.083Z,20.40
2018-06-23T18:42:05.308Z,20.10
2018-06-23T18:44:33.528Z,20.50
2018-06-23T18:49:29.811Z,20.40
2018-06-23T18:54:26.277Z,20.40
2018-06-23T18:56:55.232Z,20.40
2018-06-23T18:59:23.443Z,20.30
2018-06-23T19:01:51.658Z,20.30
2018-06-23T19:04:19.911Z,20.20
2018-06-23T19:09:16.108Z,20.20
2018-06-23T19:11:44.296Z,20.20
2018-06-23T19:14:12.503Z,20.20
2018-06-23T19:19:08.656Z,20.10
2018-06-23T19:21:36.893Z,20.10
2018-06-23T19:24:05.251Z,20.10
2018-06-23T19:26:33.588Z,20.10
2018-06-23T19:29:01.819Z,20.00
2018-06-23T19:31:30.061Z,20.00
2018-06-23T19:33:58.289Z,20.00
2018-06-23T19:36:26.499Z,19.90
2018-06-23T19:38:54.895Z,20.00
2018-06-23T19:41:26.439Z,19.60
2018-06-23T19:43:54.696Z,19.80
2018-06-23T19:46:22.903Z,20.40
2018-06-23T19:48:51.445Z,19.80
2018-06-23T19:51:19.716Z,19.80
2018-06-23T19:56:16.055Z,19.80
2018-06-23T19:58:44.306Z,19.70
2018-06-23T20:01:12.540Z,19.60
2018-06-23T20:03:40.762Z,19.40
2018-06-23T20:06:09.023Z,19.20
2018-06-23T20:08:37.279Z,19.10
2018-06-23T20:11:05.551Z,19.10
2018-06-23T20:13:33.768Z,18.90
2018-06-23T20:16:01.984Z,18.90
2018-06-23T20:18:30.190Z,18.80
2018-06-23T20:20:58.387Z,18.80
2018-06-23T20:23:26.635Z,18.80
2018-06-23T20:25:54.857Z,18.70
2018-06-23T20:28:23.094Z,18.70
2018-06-23T20:30:51.307Z,18.60
2018-06-23T20:35:47.469Z,18.60
2018-06-23T20:38:15.685Z,18.60
2018-06-23T20:40:43.908Z,18.50
2018-06-23T20:45:40.084Z,18.50
2018-06-23T20:48:08.313Z,18.50
2018-06-23T20:50:36.540Z,18.50
2018-06-23T20:53:04.757Z,18.40
2018-06-23T20:55:32.988Z,18.40
2018-06-23T20:58:01.171Z,18.40
2018-06-23T21:00:29.400Z,18.40
2018-06-23T21:05:25.481Z,18.40
2018-06-23T21:07:53.642Z,18.40
2018-06-23T21:10:33.276Z,18.40
2018-06-23T21:13:01.453Z,18.40
2018-06-23T21:15:29.636Z,18.40
2018-06-23T21:17:57.827Z,18.30
2018-06-23T21:20:26.007Z,18.20
2018-06-23T21:22:54.167Z,18.30
2018-06-23T21:25:22.328Z,18.20
2018-06-23T21:27:50.486Z,18.30
2018-06-23T21:30:18.641Z,18.30
2018-06-23T21:32:46.809Z,18.30
2018-06-23T21:35:15.072Z,18.30
2018-06-23T21:37:43.318Z,18.30
2018-06-23T21:40:11.522Z,18.30
2018-06-23T21:42:39.655Z,18.30
2018-06-23T21:45:07.833Z,18.30
2018-06-23T21:47:36.028Z,18.30
2018-06-23T21:50:04.205Z,18.30
2018-06-23T21:52:33.130Z,18.40
2018-06-23T21:55:01.067Z,18.20
2018-06-23T21:57:29.303Z,18.20
2018-06-23T21:59:57.526Z,18.10
2018-06-23T22:02:25.738Z,18.10
2018-06-23T22:04:53.988Z,18.10
2018-06-23T22:09:51.015Z,18.10
2018-06-23T22:12:19.488Z,18.10
2018-06-23T22:14:47.696Z,18.00
2018-06-23T22:17:15.904Z,18.00
2018-06-23T22:19:44.123Z,18.00
2018-06-23T22:22:12.345Z,17.90
2018-06-23T22:29:36.498Z,17.80
2018-06-23T22:32:04.700Z,17.70
2018-06-23T22:34:32.916Z,17.70
2018-06-23T22:37:01.138Z,17.70
2018-06-23T22:39:29.401Z,17.80
2018-06-23T22:41:57.633Z,17.80
2018-06-23T22:44:25.847Z,17.80
2018-06-23T22:46:54.054Z,17.80
2018-06-23T22:49:22.278Z,18.30
2018-06-23T22:51:50.527Z,17.80
2018-06-23T22:54:18.735Z,17.80
2018-06-23T22:56:46.900Z,17.80
2018-06-23T22:59:15.079Z,17.70
2018-06-23T23:01:43.246Z,17.60
2018-06-23T23:04:11.419Z,17.50
2018-06-23T23:06:39.602Z,17.50
2018-06-23T23:09:09.158Z,17.50
2018-06-23T23:11:37.340Z,17.60
2018-06-23T23:14:06.236Z,17.60
2018-06-23T23:19:02.391Z,17.40
2018-06-23T23:21:30.560Z,17.30
2018-06-23T23:23:58.738Z,17.10
2018-06-23T23:26:26.885Z,17.00
2018-06-23T23:28:55.078Z,17.00
2018-06-23T23:31:23.283Z,17.10
2018-06-23T23:33:51.478Z,17.10
2018-06-23T23:36:19.639Z,17.10
2018-06-23T23:38:47.917Z,17.00
2018-06-23T23:41:16.092Z,16.90
2018-06-23T23:43:44.271Z,16.90
2018-06-23T23:46:12.440Z,17.00
2018-06-23T23:48:40.607Z,17.00
2018-06-23T23:51:08.785Z,16.90
2018-06-23T23:53:36.969Z,17.00
2018-06-23T23:56:05.208Z,17.00
2018-06-23T23:58:33.434Z,16.70
